Time;durP1;ratioP1;P1;durP2;ratioP2;P2;SDS_P1;SDS_P2;PMS_P1;PMS_P2;Temp;Humidity;BMP_temperature;BMP_pressure;BME280_temperature;BME280_humidity;BME280_pressure;Samples;Min_cycle;Max_cycle;Signal;HPM_P1;HPM_P2
2021/01/12 00:02:23;;;;;;;21.70;11.98;;;1.80;99.90;;;;;;5010794;28;20458;-55
2021/01/12 00:04:50;;;;;;;24.73;12.30;;;2.20;99.90;;;;;;4998772;28;20753;-54
2021/01/12 00:07:20;;;;;;;22.17;12.05;;;2.90;99.90;;;;;;5005235;28;20409;-54
2021/01/12 00:09:45;;;;;;;21.98;11.45;;;-0.10;99.90;;;;;;5006007;28;20404;-54
2021/01/12 00:12:11;;;;;;;22.75;11.57;;;2.80;99.90;;;;;;5007662;28;21874;-54
2021/01/12 00:14:37;;;;;;;22.90;11.80;;;0.30;99.90;;;;;;5007791;28;20419;-54
2021/01/12 00:17:07;;;;;;;20.83;11.20;;;0.00;99.90;;;;;;5007783;28;20419;-54
2021/01/12 00:19:34;;;;;;;22.70;12.37;;;0.00;99.90;;;;;;5003488;28;20385;-55
2021/01/12 00:22:01;;;;;;;20.02;11.02;;;0.00;99.90;;;;;;5005728;28;20460;-55
2021/01/12 00:24:27;;;;;;;23.80;11.55;;;0.10;99.90;;;;;;5009483;28;20385;-54
2021/01/12 00:26:53;;;;;;;21.48;11.77;;;0.00;99.90;;;;;;5005680;28;20408;-54
2021/01/12 00:29:19;;;;;;;23.05;11.55;;;0.10;99.90;;;;;;5008178;28;20460;-54
2021/01/12 00:31:46;;;;;;;19.45;11.35;;;0.10;99.90;;;;;;5005166;28;20495;-54
2021/01/12 00:34:13;;;;;;;20.45;11.68;;;0.20;99.90;;;;;;5005711;28;20385;-55
2021/01/12 00:36:49;;;;;;;20.70;11.52;;;0.30;99.90;;;;;;5001119;28;20420;-54
2021/01/12 00:39:17;;;;;;;21.02;11.15;;;2.80;99.90;;;;;;5008045;28;20397;-54
2021/01/12 00:41:51;;;;;;;23.17;11.80;;;0.20;99.90;;;;;;5007884;28;20392;-54
2021/01/12 00:44:17;;;;;;;21.08;11.73;;;0.20;99.90;;;;;;5006881;28;20815;-55
2021/01/12 00:46:44;;;;;;;25.38;12.50;;;0.20;99.90;;;;;;5005572;28;20418;-54
2021/01/12 00:49:11;;;;;;;26.10;12.40;;;3.20;99.90;;;;;;5008557;28;20849;-55
2021/01/12 00:51:39;;;;;;;22.33;11.13;;;0.50;99.90;;;;;;5006332;28;20405;-54
2021/01/12 00:54:06;;;;;;;19.30;10.57;;;0.50;99.90;;;;;;5005323;28;20431;-54
2021/01/12 00:56:32;;;;;;;20.77;11.15;;;0.50;99.90;;;;;;5003513;28;20413;-55
2021/01/12 00:58:58;;;;;;;21.65;11.55;;;2.30;99.90;;;;;;5006692;28;20456;-55
2021/01/12 01:01:24;;;;;;;24.17;11.70;;;0.70;99.90;;;;;;5009013;28;20396;-55
2021/01/12 01:03:49;;;;;;;23.23;12.20;;;3.40;99.90;;;;;;5008958;28;20397;-55
2021/01/12 01:06:15;;;;;;;21.30;11.70;;;0.80;99.90;;;;;;5009074;28;20399;-55
2021/01/12 01:08:41;;;;;;;24.30;12.47;;;0.90;99.90;;;;;;5009279;28;20470;-54
2021/01/12 01:11:06;;;;;;;19.75;10.70;;;3.10;99.90;;;;;;5008345;28;20428;-55
2021/01/12 01:13:32;;;;;;;20.93;11.10;;;0.80;99.90;;;;;;5010038;28;20914;-55
2021/01/12 01:15:58;;;;;;;22.07;11.83;;;0.80;99.90;;;;;;5009282;28;20390;-55
2021/01/12 01:18:23;;;;;;;20.48;11.68;;;0.80;99.90;;;;;;5009167;28;20474;-54
2021/01/12 01:20:49;;;;;;;23.77;11.70;;;0.70;99.90;;;;;;5009415;28;20727;-55
2021/01/12 01:23:16;;;;;;;25.35;13.00;;;0.80;99.90;;;;;;5008900;28;20443;-55
2021/01/12 01:25:42;;;;;;;23.30;11.30;;;0.70;99.90;;;;;;5009527;28;20436;-54
2021/01/12 01:28:07;;;;;;;24.27;11.63;;;0.70;99.90;;;;;;5008932;28;20902;-55
2021/01/12 01:30:33;;;;;;;21.93;11.50;;;0.70;99.90;;;;;;5009774;28;20388;-55
2021/01/12 01:32:59;;;;;;;24.40;11.48;;;2.20;99.90;;;;;;5008148;28;20487;-54
2021/01/12 01:35:25;;;;;;;22.10;12.23;;;3.40;99.90;;;;;;5010069;28;20771;-55
2021/01/12 01:37:51;;;;;;;20.80;12.35;;;1.90;99.90;;;;;;5008806;28;20412;-54
2021/01/12 01:40:20;;;;;;;21.30;11.43;;;0.70;99.90;;;;;;5009304;28;20396;-55
2021/01/12 01:42:46;;;;;;;22.35;11.15;;;0.80;99.90;;;;;;5008144;28;20392;-55
2021/01/12 01:45:13;;;;;;;24.98;12.15;;;0.70;99.90;;;;;;5009972;28;20495;-55
2021/01/12 01:47:42;;;;;;;22.08;12.25;;;0.80;99.90;;;;;;5009125;28;20475;-54
2021/01/12 01:50:14;;;;;;;20.50;11.40;;;0.80;99.90;;;;;;5008559;28;20732;-55
2021/01/12 01:52:43;;;;;;;22.52;11.57;;;0.90;99.90;;;;;;5010026;28;20388;-54
2021/01/12 01:55:09;;;;;;;19.20;10.73;;;3.50;99.90;;;;;;5008305;28;20415;-55
2021/01/12 01:57:34;;;;;;;20.73;10.90;;;0.70;99.90;;;;;;5009884;28;20411;-55
2021/01/12 02:00:03;;;;;;;22.05;10.90;;;3.40;99.90;;;;;;5007508;28;20475;-54
2021/01/12 02:02:28;;;;;;;20.70;10.17;;;0.40;99.90;;;;;;5010238;28;20866;-55
2021/01/12 02:05:01;;;;;;;19.30;10.53;;;0.50;99.90;;;;;;5007840;28;20404;-55
2021/01/12 02:07:28;;;;;;;21.20;10.87;;;0.50;99.90;;;;;;5009005;28;20886;-55
2021/01/12 02:09:54;;;;;;;18.97;10.10;;;0.50;99.90;;;;;;5008281;28;20436;-55
2021/01/12 02:12:37;;;;;;;21.90;10.80;;;0.70;99.90;;;;;;5008213;28;20400;-55
2021/01/12 02:15:04;;;;;;;18.30;10.05;;;0.80;99.90;;;;;;5009184;28;20384;-55
2021/01/12 02:17:31;;;;;;;17.70;9.38;;;0.80;99.90;;;;;;5008235;28;20424;-55
2021/01/12 02:19:57;;;;;;;18.17;9.40;;;3.40;99.90;;;;;;5008336;28;20404;-55
2021/01/12 02:22:25;;;;;;;18.95;9.57;;;0.90;99.90;;;;;;5008721;28;20488;-54
2021/01/12 02:24:51;;;;;;;18.95;9.32;;;3.70;99.90;;;;;;5009209;28;20492;-55
2021/01/12 02:27:24;;;;;;;17.23;8.70;;;1.00;99.90;;;;;;5008430;28;20429;-55
2021/01/12 02:29:50;;;;;;;16.08;8.60;;;1.20;99.90;;;;;;5006711;28;20396;-55
2021/01/12 02:32:17;;;;;;;19.02;9.10;;;1.30;99.90;;;;;;5007745;28;20404;-55
2021/01/12 02:34:47;;;;;;;16.95;8.80;;;1.30;99.90;;;;;;5007990;28;20431;-54
2021/01/12 02:37:16;;;;;;;17.52;8.00;;;1.40;99.90;;;;;;5008396;28;20897;-55
2021/01/12 02:39:43;;;;;;;17.38;8.65;;;3.60;99.90;;;;;;5008893;28;20397;-54
2021/01/12 02:42:14;;;;;;;16.70;8.38;;;3.70;99.90;;;;;;5007866;28;20403;-55
2021/01/12 02:44:40;;;;;;;15.75;7.70;;;1.50;99.90;;;;;;5007548;28;20400;-54
2021/01/12 02:47:06;;;;;;;15.43;8.48;;;1.50;99.90;;;;;;5008443;28;20451;-55
2021/01/12 02:49:31;;;;;;;15.87;8.20;;;3.40;99.90;;;;;;5009651;28;20400;-55
2021/01/12 02:51:57;;;;;;;14.43;7.50;;;1.40;99.90;;;;;;5007495;28;20928;-55
2021/01/12 02:54:23;;;;;;;16.17;8.30;;;1.40;99.90;;;;;;5009230;28;20381;-55
2021/01/12 02:56:48;;;;;;;14.37;7.63;;;3.90;99.90;;;;;;5008192;28;20887;-54
2021/01/12 02:59:14;;;;;;;15.67;7.80;;;2.80;99.90;;;;;;5009650;28;20493;-55
2021/01/12 03:01:39;;;;;;;12.95;7.07;;;1.40;99.90;;;;;;5012644;28;20491;-54
2021/01/12 03:04:05;;;;;;;14.07;7.60;;;1.40;99.90;;;;;;5011955;28;20484;-55
2021/01/12 03:06:31;;;;;;;14.70;7.37;;;3.20;99.90;;;;;;5011786;28;20423;-55
2021/01/12 03:08:56;;;;;;;13.80;7.18;;;1.30;99.90;;;;;;5012197;28;20388;-55
2021/01/12 03:11:22;;;;;;;14.10;7.13;;;2.10;99.90;;;;;;5011302;28;20409;-55
2021/01/12 03:13:47;;;;;;;12.40;6.25;;;3.20;99.90;;;;;;5012181;28;20920;-55
2021/01/12 03:16:13;;;;;;;12.60;6.25;;;1.20;99.90;;;;;;5010854;28;20404;-55
2021/01/12 03:18:39;;;;;;;13.73;6.57;;;1.30;99.90;;;;;;5012766;28;20399;-55
2021/01/12 03:21:05;;;;;;;13.67;7.20;;;1.30;99.90;;;;;;5010522;28;20903;-55
2021/01/12 03:23:30;;;;;;;11.75;6.35;;;4.10;99.90;;;;;;5012048;28;20438;-55
2021/01/12 03:25:56;;;;;;;14.82;6.65;;;3.90;99.90;;;;;;5011306;28;20393;-55
2021/01/12 03:28:22;;;;;;;13.93;6.30;;;1.20;99.90;;;;;;5011097;28;20407;-55
2021/01/12 03:30:48;;;;;;;15.07;7.10;;;1.30;99.90;;;;;;5010187;28;20409;-54
2021/01/12 03:33:13;;;;;;;12.27;6.50;;;1.30;99.90;;;;;;5012195;28;20397;-55
2021/01/12 03:35:39;;;;;;;13.02;6.65;;;1.30;99.90;;;;;;5010725;28;20581;-54
2021/01/12 03:38:05;;;;;;;12.50;6.40;;;3.80;99.90;;;;;;5011299;28;20417;-55
2021/01/12 03:40:30;;;;;;;13.53;6.40;;;3.50;99.90;;;;;;5011836;28;20388;-54
2021/01/12 03:42:56;;;;;;;11.38;5.78;;;4.00;99.90;;;;;;5010201;28;20886;-55
2021/01/12 03:45:22;;;;;;;12.60;6.20;;;1.20;99.90;;;;;;5011895;28;20878;-55
2021/01/12 03:47:47;;;;;;;13.50;6.40;;;1.30;99.90;;;;;;5010142;28;20476;-55
2021/01/12 03:50:15;;;;;;;14.33;6.37;;;1.30;99.90;;;;;;5011416;28;20515;-54
2021/01/12 03:52:40;;;;;;;12.90;6.80;;;2.00;99.90;;;;;;5010740;28;20405;-54
2021/01/12 03:55:06;;;;;;;11.10;5.43;;;4.20;99.90;;;;;;5011275;28;20507;-55
2021/01/12 03:57:32;;;;;;;15.63;7.70;;;1.40;99.90;;;;;;5010634;28;20509;-54
2021/01/12 03:59:58;;;;;;;12.57;6.17;;;1.40;99.90;;;;;;5010513;28;20917;-55
2021/01/12 04:02:23;;;;;;;11.60;5.45;;;3.60;99.90;;;;;;5010015;28;20396;-55
2021/01/12 04:04:49;;;;;;;14.33;6.40;;;3.60;99.90;;;;;;5010678;28;20389;-55
2021/01/12 04:07:15;;;;;;;12.82;6.60;;;1.40;99.90;;;;;;5010316;28;20405;-55
2021/01/12 04:09:40;;;;;;;12.70;6.20;;;1.40;99.90;;;;;;5010933;28;20980;-54
2021/01/12 04:12:08;;;;;;;13.20;5.97;;;4.50;99.90;;;;;;5008850;28;20778;-55
2021/01/12 04:14:33;;;;;;;11.80;5.40;;;1.30;99.90;;;;;;5010242;28;20408;-55
2021/01/12 04:16:59;;;;;;;10.70;5.68;;;2.70;99.90;;;;;;5010571;28;20918;-55
2021/01/12 04:19:24;;;;;;;12.30;5.97;;;2.80;99.90;;;;;;5011792;28;20546;-55
2021/01/12 04:21:50;;;;;;;14.15;6.65;;;2.10;99.90;;;;;;5009531;28;20393;-54
2021/01/12 04:24:16;;;;;;;12.07;6.10;;;4.30;99.90;;;;;;5011338;28;20463;-55
2021/01/12 04:26:42;;;;;;;13.30;6.13;;;3.00;99.90;;;;;;5010047;28;20447;-54
2021/01/12 04:29:07;;;;;;;13.63;6.80;;;1.20;99.90;;;;;;5010312;28;20447;-55
2021/01/12 04:31:33;;;;;;;13.80;6.82;;;1.30;99.90;;;;;;5011206;28;20750;-55
2021/01/12 04:33:59;;;;;;;12.47;6.00;;;1.30;99.90;;;;;;5009415;28;20412;-55
2021/01/12 04:36:25;;;;;;;11.47;5.93;;;3.80;99.90;;;;;;5010505;28;20430;-55
2021/01/12 04:38:51;;;;;;;11.80;6.13;;;1.20;99.90;;;;;;5010274;28;20381;-54
2021/01/12 04:41:17;;;;;;;13.70;6.40;;;1.30;99.90;;;;;;5009431;28;20401;-55
2021/01/12 04:43:42;;;;;;;13.70;5.67;;;1.40;99.90;;;;;;5010588;28;20484;-54
2021/01/12 04:46:08;;;;;;;13.50;5.57;;;3.20;99.90;;;;;;5008842;28;20988;-55
2021/01/12 04:48:34;;;;;;;13.25;6.53;;;1.40;99.90;;;;;;5010756;28;20475;-55
2021/01/12 04:51:01;;;;;;;12.48;5.72;;;4.10;99.90;;;;;;5010386;28;20452;-55
2021/01/12 04:53:40;;;;;;;12.35;5.90;;;2.50;99.90;;;;;;5010951;28;20396;-55
2021/01/12 04:56:06;;;;;;;11.38;5.40;;;1.50;99.90;;;;;;5010515;28;20462;-55
2021/01/12 04:58:49;;;;;;;12.18;6.93;;;3.50;99.90;;;;;;5010933;28;20511;-55
2021/01/12 05:01:17;;;;;;;11.48;5.80;;;1.50;99.90;;;;;;5010871;28;20483;-55
2021/01/12 05:03:45;;;;;;;12.55;6.18;;;1.70;99.90;;;;;;5010331;28;20725;-54
2021/01/12 05:06:14;;;;;;;10.90;5.40;;;1.70;99.90;;;;;;5010738;28;20762;-55
2021/01/12 05:08:55;;;;;;;11.67;6.00;;;1.80;99.90;;;;;;5010770;28;20479;-55
2021/01/12 05:11:27;;;;;;;14.07;6.53;;;1.80;99.90;;;;;;5010818;28;20428;-55
2021/01/12 05:13:55;;;;;;;12.65;6.38;;;1.80;99.90;;;;;;5010046;28;20846;-54
2021/01/12 05:16:24;;;;;;;11.95;5.97;;;4.70;99.90;;;;;;5010847;28;20787;-55
2021/01/12 05:18:51;;;;;;;13.43;5.90;;;3.20;99.90;;;;;;5009878;28;20376;-54
2021/01/12 05:21:18;;;;;;;11.93;5.80;;;2.50;99.90;;;;;;5010444;28;20401;-54
2021/01/12 05:23:52;;;;;;;11.57;5.40;;;1.70;99.90;;;;;;5008383;28;20399;-54
2021/01/12 05:26:19;;;;;;;10.97;5.33;;;1.70;99.90;;;;;;5010435;28;20392;-55
2021/01/12 05:28:45;;;;;;;11.80;5.80;;;2.90;99.90;;;;;;5006589;28;20441;-54
2021/01/12 05:31:13;;;;;;;11.43;5.00;;;3.90;99.90;;;;;;5001547;28;20394;-55
2021/01/12 05:33:41;;;;;;;11.70;5.13;;;4.50;99.90;;;;;;4990503;28;20496;-55
2021/01/12 05:36:07;;;;;;;9.88;4.93;;;4.60;99.90;;;;;;4990046;28;20394;-55
2021/01/12 05:38:33;;;;;;;9.60;5.00;;;1.70;99.90;;;;;;4989954;28;20442;-55
2021/01/12 05:41:00;;;;;;;10.88;5.10;;;1.70;99.90;;;;;;4992717;28;20866;-55
2021/01/12 05:43:37;;;;;;;11.52;5.72;;;4.50;99.90;;;;;;5007279;28;20940;-56
2021/01/12 05:46:07;;;;;;;11.02;5.70;;;1.80;99.90;;;;;;5009433;28;20384;-55
2021/01/12 05:48:44;;;;;;;10.82;5.40;;;1.80;99.90;;;;;;5003653;28;20405;-55
2021/01/12 05:51:13;;;;;;;11.70;5.38;;;1.80;99.90;;;;;;5007006;28;20762;-55
2021/01/12 05:53:50;;;;;;;10.27;5.07;;;3.80;99.90;;;;;;5000269;28;20393;-55
2021/01/12 05:56:24;;;;;;;9.68;4.50;;;1.80;99.90;;;;;;4997329;28;20848;-55
2021/01/12 05:58:55;;;;;;;9.75;5.03;;;1.90;99.90;;;;;;5002903;28;20452;-55
2021/01/12 06:01:42;;;;;;;11.38;5.32;;;1.90;99.90;;;;;;5009504;28;20396;-55
2021/01/12 06:04:10;;;;;;;11.77;5.20;;;1.90;99.90;;;;;;5009110;28;20381;-55
2021/01/12 06:06:43;;;;;;;9.18;4.60;;;3.20;99.90;;;;;;5005662;28;20908;-55
2021/01/12 06:09:10;;;;;;;11.02;5.10;;;2.00;99.90;;;;;;5009551;28;20443;-55
2021/01/12 06:11:38;;;;;;;12.37;5.53;;;1.90;99.90;;;;;;4997690;28;20417;-55
2021/01/12 06:14:15;;;;;;;10.63;5.30;;;2.50;99.90;;;;;;4989628;28;20453;-55
2021/01/12 06:16:43;;;;;;;10.77;5.25;;;1.90;99.90;;;;;;4994206;28;20915;-54
2021/01/12 06:19:14;;;;;;;10.38;5.20;;;2.00;99.90;;;;;;5002692;28;20416;-55
2021/01/12 06:21:55;;;;;;;10.57;5.28;;;2.00;99.90;;;;;;5009740;28;20429;-54
2021/01/12 06:24:26;;;;;;;11.55;5.55;;;2.00;99.90;;;;;;5009519;28;20380;-55
2021/01/12 06:26:53;;;;;;;10.37;5.10;;;2.00;99.90;;;;;;5008744;28;20731;-55
2021/01/12 06:29:22;;;;;;;9.85;5.10;;;2.00;99.90;;;;;;5009528;28;20452;-55
2021/01/12 06:31:49;;;;;;;10.43;5.05;;;2.60;99.90;;;;;;5008722;28;20438;-55
2021/01/12 06:34:19;;;;;;;8.17;4.67;;;0.10;99.90;;;;;;5010992;28;20389;-55
2021/01/12 06:36:51;;;;;;;10.75;5.57;;;4.80;99.90;;;;;;5012470;28;20474;-54
2021/01/12 06:39:21;;;;;;;12.15;5.28;;;2.80;99.90;;;;;;5013415;28;20389;-55
2021/01/12 06:41:48;;;;;;;10.55;5.00;;;2.00;99.90;;;;;;5012671;28;20381;-54
2021/01/12 06:44:25;;;;;;;10.30;5.30;;;2.00;99.90;;;;;;5012936;28;20385;-55
2021/01/12 06:46:55;;;;;;;10.52;4.60;;;2.00;99.90;;;;;;5012611;28;20870;-55
2021/01/12 06:49:23;;;;;;;10.32;4.95;;;1.90;99.90;;;;;;5012596;28;20515;-55
2021/01/12 06:52:04;;;;;;;10.20;4.50;;;1.90;99.90;;;;;;5011577;28;20397;-55
2021/01/12 06:54:40;;;;;;;9.50;4.50;;;1.80;99.90;;;;;;5011542;28;20439;-55
2021/01/12 06:57:08;;;;;;;10.57;5.32;;;1.90;99.90;;;;;;5005126;28;20466;-55
2021/01/12 06:59:38;;;;;;;11.10;5.20;;;1.90;99.90;;;;;;5010230;28;20408;-55
2021/01/12 07:02:08;;;;;;;10.38;5.20;;;1.90;99.90;;;;;;5011666;28;20459;-55
2021/01/12 07:04:34;;;;;;;10.32;5.10;;;4.30;99.90;;;;;;5011351;28;20409;-55
2021/01/12 07:07:01;;;;;;;9.45;4.63;;;4.40;99.90;;;;;;5011464;28;20729;-55
2021/01/12 07:09:27;;;;;;;10.50;5.07;;;2.60;99.90;;;;;;5011253;28;20423;-55
2021/01/12 07:12:07;;;;;;;9.27;4.32;;;1.90;99.90;;;;;;5009895;28;20405;-55
2021/01/12 07:14:42;;;;;;;10.98;5.35;;;1.90;99.90;;;;;;5010386;28;20404;-55
2021/01/12 07:17:08;;;;;;;11.30;5.20;;;3.70;99.90;;;;;;5012376;28;20420;-55
2021/01/12 07:19:34;;;;;;;11.73;5.40;;;1.90;99.90;;;;;;5011297;28;20534;-55
2021/01/12 07:22:17;;;;;;;10.70;5.15;;;4.80;99.90;;;;;;5011614;28;20385;-55
2021/01/12 07:24:47;;;;;;;12.10;5.50;;;1.80;99.90;;;;;;5011488;28;20451;-54
2021/01/12 07:27:16;;;;;;;9.60;5.20;;;3.80;99.90;;;;;;5011287;28;20389;-54
2021/01/12 07:29:49;;;;;;;11.40;5.15;;;1.70;99.90;;;;;;5011259;28;20412;-54
2021/01/12 07:32:53;;;;;;;11.57;5.82;;;3.80;99.90;;;;;;5008623;28;20555;-55
2021/01/12 07:35:19;;;;;;;10.32;5.32;;;1.80;99.90;;;;;;5001685;28;20413;-55
2021/01/12 07:37:44;;;;;;;10.88;5.47;;;2.20;99.90;;;;;;4998552;28;20453;-54
2021/01/12 07:40:13;;;;;;;11.80;5.68;;;3.70;99.90;;;;;;4996104;28;20731;-55
2021/01/12 07:43:02;;;;;;;10.67;5.30;;;1.80;99.90;;;;;;5011468;28;20788;-55
2021/01/12 07:45:30;;;;;;;10.65;4.80;;;1.80;99.90;;;;;;5008961;28;20778;-55
2021/01/12 07:47:57;;;;;;;10.90;5.07;;;1.70;99.90;;;;;;5010979;28;20393;-55
2021/01/12 07:50:26;;;;;;;10.95;6.00;;;4.70;99.90;;;;;;5010501;28;20404;-55
2021/01/12 07:52:52;;;;;;;11.23;5.80;;;1.70;99.90;;;;;;5010600;28;20385;-55
2021/01/12 07:55:18;;;;;;;10.90;5.22;;;4.70;99.90;;;;;;5010141;28;20400;-55
2021/01/12 07:57:49;;;;;;;13.23;5.60;;;1.70;99.90;;;;;;5010739;28;20420;-54
2021/01/12 08:00:16;;;;;;;13.50;5.70;;;1.80;99.90;;;;;;5010276;28;20460;-55
2021/01/12 08:02:49;;;;;;;13.63;5.95;;;1.80;99.90;;;;;;5011364;28;20401;-54
2021/01/12 08:05:18;;;;;;;11.35;5.47;;;3.50;99.90;;;;;;5009909;28;20412;-55
2021/01/12 08:07:44;;;;;;;11.55;5.93;;;1.90;99.90;;;;;;5011171;28;20511;-54
2021/01/12 08:10:10;;;;;;;11.50;5.75;;;3.70;99.90;;;;;;5009856;28;22005;-55
2021/01/12 08:12:36;;;;;;;14.82;6.10;;;1.90;99.90;;;;;;5009835;28;20451;-55
2021/01/12 08:15:08;;;;;;;10.30;5.57;;;2.40;99.90;;;;;;5010699;28;20380;-55
2021/01/12 08:17:35;;;;;;;12.45;5.75;;;1.90;99.90;;;;;;5009399;28;20435;-55
2021/01/12 08:20:04;;;;;;;12.15;5.47;;;1.90;99.90;;;;;;5009879;28;20716;-55
2021/01/12 08:22:30;;;;;;;11.80;6.00;;;1.90;99.90;;;;;;5009880;28;20453;-54
2021/01/12 08:25:06;;;;;;;11.20;5.30;;;3.10;99.90;;;;;;5009796;28;20505;-55
2021/01/12 08:27:32;;;;;;;10.02;5.20;;;2.00;99.90;;;;;;5010404;28;20393;-55
2021/01/12 08:30:08;;;;;;;12.48;5.10;;;2.00;99.90;;;;;;5008370;28;20420;-55
2021/01/12 08:32:39;;;;;;;9.10;5.03;;;2.00;99.90;;;;;;5010448;28;20401;-55
2021/01/12 08:35:07;;;;;;;9.07;5.00;;;4.70;99.90;;;;;;5008899;28;20967;-55
2021/01/12 08:37:45;;;;;;;9.85;5.50;;;2.10;99.90;;;;;;5010678;28;20416;-55
2021/01/12 08:40:14;;;;;;;11.70;5.18;;;2.10;99.90;;;;;;5009847;28;20887;-55
2021/01/12 08:42:41;;;;;;;10.07;4.20;;;2.20;99.90;;;;;;5008653;28;20392;-55
2021/01/12 08:45:12;;;;;;;10.73;4.63;;;4.80;99.90;;;;;;5007968;28;20480;-55
2021/01/12 08:47:37;;;;;;;11.15;4.78;;;2.30;99.90;;;;;;5010656;28;20400;-55
2021/01/12 08:50:08;;;;;;;8.23;3.80;;;2.40;99.90;;;;;;5008654;28;20408;-55
2021/01/12 08:52:37;;;;;;;7.10;3.20;;;2.40;99.90;;;;;;5009760;28;20408;-55
2021/01/12 08:55:14;;;;;;;6.85;2.92;;;0.00;99.90;;;;;;5008767;28;21279;-55
2021/01/12 08:57:40;;;;;;;5.35;2.60;;;2.50;99.90;;;;;;5008801;28;20417;-55
2021/01/12 09:00:12;;;;;;;5.00;2.13;;;4.00;99.90;;;;;;5008478;28;20649;-55
2021/01/12 09:02:38;;;;;;;4.50;1.75;;;2.60;99.90;;;;;;5010941;28;20392;-55
2021/01/12 09:05:04;;;;;;;4.83;1.90;;;-0.10;99.90;;;;;;5008031;28;20482;-55
2021/01/12 09:07:32;;;;;;;4.75;1.58;;;2.70;99.90;;;;;;5010528;28;20411;-55
2021/01/12 09:09:57;;;;;;;4.15;1.90;;;4.80;99.90;;;;;;5008112;28;20455;-56
2021/01/12 09:12:23;;;;;;;4.23;1.80;;;3.30;99.90;;;;;;5010154;28;20392;-55
2021/01/12 09:14:50;;;;;;;3.50;1.60;;;4.70;99.90;;;;;;5007653;28;20932;-54
2021/01/12 09:17:17;;;;;;;3.60;1.30;;;2.60;99.90;;;;;;5010442;28;20452;-55
2021/01/12 09:19:47;;;;;;;3.30;1.20;;;2.50;99.90;;;;;;5008537;28;20401;-55
2021/01/12 09:22:17;;;;;;;3.78;1.30;;;2.80;99.90;;;;;;5010115;28;20377;-55
2021/01/12 09:24:46;;;;;;;4.38;1.10;;;5.40;99.90;;;;;;5009286;28;20412;-55
2021/01/12 09:27:19;;;;;;;2.95;1.02;;;2.50;99.90;;;;;;5008767;28;20495;-55
2021/01/12 09:29:45;;;;;;;3.35;1.17;;;2.50;99.90;;;;;;5006855;28;20447;-54
2021/01/12 09:32:12;;;;;;;3.50;1.20;;;2.50;99.90;;;;;;5008093;28;20399;-55
2021/01/12 09:34:40;;;;;;;3.95;1.17;;;4.90;99.90;;;;;;5010111;28;20397;-55
2021/01/12 09:37:19;;;;;;;2.60;1.00;;;2.40;99.90;;;;;;5007801;28;20448;-55
2021/01/12 09:39:51;;;;;;;3.08;1.00;;;3.10;99.90;;;;;;5009140;28;20392;-54
2021/01/12 09:42:21;;;;;;;17.63;7.18;;;3.10;99.90;;;;;;5009101;28;20396;-54
2021/01/12 09:44:47;;;;;;;4.32;1.13;;;4.20;99.90;;;;;;5007864;28;20499;-54
2021/01/12 09:47:13;;;;;;;4.00;0.90;;;3.30;99.90;;;;;;5007039;28;20409;-55
2021/01/12 09:49:38;;;;;;;6.10;1.30;;;2.20;99.90;;;;;;5003676;28;20423;-55
2021/01/12 09:52:04;;;;;;;3.35;1.02;;;2.30;99.90;;;;;;5008159;28;20468;-55
2021/01/12 09:54:31;;;;;;;3.30;1.20;;;3.10;99.90;;;;;;5007529;28;20419;-55
2021/01/12 09:56:56;;;;;;;3.80;1.45;;;3.00;99.90;;;;;;5008373;28;20473;-55
2021/01/12 09:59:22;;;;;;;2.88;1.10;;;3.20;99.90;;;;;;5008973;28;20382;-55
2021/01/12 10:01:55;;;;;;;4.05;1.58;;;2.10;99.90;;;;;;5007009;28;20408;-54
2021/01/12 10:04:21;;;;;;;5.10;1.50;;;2.00;99.90;;;;;;5008559;28;20775;-55
2021/01/12 10:06:53;;;;;;;4.82;1.23;;;2.00;99.90;;;;;;5007673;28;20400;-54
2021/01/12 10:09:20;;;;;;;3.08;1.20;;;2.00;99.90;;;;;;5001829;28;20884;-55
2021/01/12 10:11:46;;;;;;;3.10;1.13;;;2.00;99.90;;;;;;5008641;28;20554;-54
2021/01/12 10:14:12;;;;;;;3.35;1.30;;;3.10;99.90;;;;;;5011244;28;20865;-54
2021/01/12 10:16:37;;;;;;;3.27;1.10;;;2.00;99.90;;;;;;5008964;28;20389;-55
2021/01/12 10:19:03;;;;;;;3.60;1.30;;;2.00;99.90;;;;;;5010949;28;20394;-55
2021/01/12 10:21:29;;;;;;;3.10;1.20;;;2.10;99.90;;;;;;5012682;28;20373;-55
2021/01/12 10:23:54;;;;;;;3.13;1.10;;;4.10;99.90;;;;;;5009805;28;20532;-56
2021/01/12 10:26:20;;;;;;;2.83;1.20;;;4.30;99.90;;;;;;5011380;28;20416;-56
2021/01/12 10:28:47;;;;;;;2.90;0.80;;;4.90;99.90;;;;;;5012148;28;20392;-55
2021/01/12 10:31:14;;;;;;;4.13;1.00;;;2.00;99.90;;;;;;5012231;28;20403;-56
2021/01/12 10:33:41;;;;;;;3.05;1.00;;;4.00;99.90;;;;;;5010989;28;20427;-55
2021/01/12 10:36:07;;;;;;;3.00;1.00;;;2.10;99.90;;;;;;5007942;28;20519;-56
2021/01/12 10:38:33;;;;;;;3.20;1.10;;;2.10;99.90;;;;;;5011328;28;20920;-56
2021/01/12 10:40:59;;;;;;;2.50;0.83;;;3.00;99.90;;;;;;5010214;28;20408;-56
2021/01/12 10:43:26;;;;;;;3.53;1.10;;;3.90;99.90;;;;;;5012069;28;20800;-55
2021/01/12 10:45:52;;;;;;;3.20;1.02;;;2.30;99.90;;;;;;5010771;28;20415;-53
2021/01/12 10:48:17;;;;;;;3.20;1.08;;;2.30;99.90;;;;;;5011739;28;20388;-55
2021/01/12 10:50:43;;;;;;;2.70;0.80;;;2.30;99.90;;;;;;5011009;28;20704;-56
2021/01/12 10:53:09;;;;;;;3.00;1.50;;;4.30;99.90;;;;;;5011739;28;20423;-56
2021/01/12 10:55:34;;;;;;;3.15;1.00;;;2.40;99.90;;;;;;5010558;28;20399;-55
2021/01/12 10:58:00;;;;;;;3.00;0.80;;;4.10;99.90;;;;;;5011693;28;20435;-56
2021/01/12 11:00:25;;;;;;;2.60;0.90;;;4.60;99.90;;;;;;5011897;28;20392;-56
2021/01/12 11:02:52;;;;;;;2.60;0.90;;;2.40;99.90;;;;;;5009601;28;20854;-55
2021/01/12 11:05:18;;;;;;;2.80;0.80;;;4.90;99.90;;;;;;5003785;28;20759;-56
2021/01/12 11:07:45;;;;;;;2.90;0.70;;;2.40;99.90;;;;;;5011248;28;20405;-56
2021/01/12 11:10:11;;;;;;;3.80;0.80;;;4.00;99.90;;;;;;5010081;28;20409;-56
2021/01/12 11:12:37;;;;;;;2.50;0.70;;;2.50;99.90;;;;;;5010008;28;20408;-55
2021/01/12 11:15:07;;;;;;;2.20;0.70;;;3.60;99.90;;;;;;5008875;28;20399;-56
2021/01/12 11:17:34;;;;;;;2.83;0.88;;;2.40;99.90;;;;;;5012217;28;20423;-56
2021/01/12 11:20:00;;;;;;;2.80;0.70;;;2.40;99.90;;;;;;5010187;28;20409;-56
2021/01/12 11:22:26;;;;;;;2.70;0.60;;;2.40;99.90;;;;;;5000852;28;20724;-55
2021/01/12 11:24:56;;;;;;;2.20;0.63;;;2.80;99.90;;;;;;5012148;28;20403;-55
2021/01/12 11:27:22;;;;;;;3.50;0.93;;;4.60;99.90;;;;;;5012173;28;20495;-55
2021/01/12 11:29:48;;;;;;;2.10;0.57;;;2.50;99.90;;;;;;5010653;28;20479;-55
2021/01/12 11:32:14;;;;;;;2.40;0.70;;;5.30;99.90;;;;;;5009948;28;20971;-55
2021/01/12 11:34:40;;;;;;;2.42;0.70;;;2.50;99.90;;;;;;5012082;28;20412;-55
2021/01/12 11:37:10;;;;;;;2.90;0.70;;;2.60;99.90;;;;;;5009395;28;20413;-56
2021/01/12 11:39:36;;;;;;;2.40;0.60;;;2.70;99.90;;;;;;5009575;28;20393;-56
2021/01/12 11:42:01;;;;;;;2.90;0.60;;;5.30;99.90;;;;;;5009559;28;20824;-55
2021/01/12 11:44:27;;;;;;;2.00;0.43;;;5.50;99.90;;;;;;5011404;28;20918;-55
2021/01/12 11:46:53;;;;;;;2.40;0.90;;;4.70;99.90;;;;;;5007982;28;20381;-55
2021/01/12 11:49:19;;;;;;;2.70;0.70;;;2.70;99.90;;;;;;5010056;28;20886;-55
2021/01/12 11:51:46;;;;;;;2.75;0.93;;;4.40;99.90;;;;;;5011928;28;20392;-53
2021/01/12 11:54:14;;;;;;;2.60;0.98;;;3.60;99.90;;;;;;5009652;28;20401;-53
2021/01/12 11:56:40;;;;;;;5.13;1.63;;;2.90;99.90;;;;;;5009954;28;20401;-55
2021/01/12 11:59:06;;;;;;;4.30;1.50;;;6.10;99.90;;;;;;5010992;28;20970;-56
2021/01/12 12:01:45;;;;;;;3.25;1.00;;;2.90;99.90;;;;;;5010084;28;20539;-55
2021/01/12 12:04:10;;;;;;;3.45;1.20;;;5.30;99.90;;;;;;5007082;28;20435;-56
2021/01/12 12:06:36;;;;;;;3.50;0.90;;;4.70;99.90;;;;;;5010146;28;20516;-55
2021/01/12 12:09:03;;;;;;;2.30;0.80;;;2.90;99.90;;;;;;5010216;28;20742;-55
2021/01/12 12:11:35;;;;;;;3.22;0.50;;;2.90;99.90;;;;;;5010064;28;20411;-55
2021/01/12 12:14:00;;;;;;;3.00;1.00;;;4.20;99.90;;;;;;5009363;28;20400;-54
2021/01/12 12:16:26;;;;;;;2.85;1.10;;;3.00;99.90;;;;;;5009736;28;20404;-54
2021/01/12 12:18:52;;;;;;;2.30;0.60;;;2.90;99.90;;;;;;5009837;28;20397;-52
2021/01/12 12:21:17;;;;;;;3.30;0.50;;;3.00;99.90;;;;;;5010927;28;20754;-53
2021/01/12 12:23:43;;;;;;;2.70;0.60;;;3.00;99.90;;;;;;5009258;28;20388;-54
2021/01/12 12:26:11;;;;;;;3.00;0.70;;;3.00;99.90;;;;;;5009569;28;20377;-54
2021/01/12 12:28:37;;;;;;;3.20;0.40;;;5.00;99.90;;;;;;5010176;28;20926;-54
2021/01/12 12:31:04;;;;;;;2.70;0.70;;;3.10;99.90;;;;;;5009429;28;20889;-55
2021/01/12 12:33:30;;;;;;;2.30;0.50;;;3.00;99.90;;;;;;5009294;28;20431;-56
2021/01/12 12:35:56;;;;;;;2.20;0.50;;;3.00;99.90;;;;;;5009894;28;20389;-54
2021/01/12 12:38:21;;;;;;;2.40;0.50;;;3.10;99.90;;;;;;5011042;28;20411;-53
2021/01/12 12:40:47;;;;;;;3.05;0.70;;;3.10;99.90;;;;;;5006414;28;20435;-53
2021/01/12 12:43:13;;;;;;;2.20;0.50;;;3.10;99.90;;;;;;5009980;28;20385;-53
2021/01/12 12:45:39;;;;;;;2.80;0.50;;;3.40;99.90;;;;;;5009240;28;20735;-53
2021/01/12 12:48:06;;;;;;;2.40;0.60;;;3.10;99.90;;;;;;5008683;28;20507;-53
2021/01/12 12:50:32;;;;;;;2.97;0.40;;;3.20;99.90;;;;;;5009202;28;20771;-53
2021/01/12 12:52:58;;;;;;;2.13;0.40;;;3.30;99.90;;;;;;5008342;28;20401;-53